Time;durP1;ratioP1;P1;durP2;ratioP2;P2;SDS_P1;SDS_P2;PMS_P1;PMS_P2;Temp;Humidity;BMP_temperature;BMP_pressure;BME280_temperature;BME280_humidity;BME280_pressure;Samples;Min_cycle;Max_cycle;Signal;HPM_P1;HPM_P2
2023/08/08 00:00:42;;;;;;;3.92;2.97;;;;;;;9.76;100.00;96933.84;4981113;28;20061;-67
2023/08/08 00:03:08;;;;;;;6.07;2.50;;;;;;;9.78;100.00;96937.03;4974635;28;20487;-65
2023/08/08 00:05:34;;;;;;;3.90;2.33;;;;;;;9.88;100.00;96938.41;4982296;28;20046;-67
2023/08/08 00:07:59;;;;;;;3.47;2.20;;;;;;;10.08;100.00;96926.38;4987342;28;20046;-67
2023/08/08 00:10:24;;;;;;;5.65;3.60;;;;;;;9.99;100.00;96925.75;4982956;28;20050;-65
2023/08/08 00:12:50;;;;;;;3.67;2.15;;;;;;;9.72;100.00;96928.28;4981509;28;20038;-65
2023/08/08 00:15:15;;;;;;;4.43;2.30;;;;;;;9.69;100.00;96925.47;4974277;28;20038;-65
2023/08/08 00:17:41;;;;;;;4.60;2.40;;;;;;;9.70;100.00;96922.38;4981199;28;20065;-65
2023/08/08 00:20:08;;;;;;;5.82;2.63;;;;;;;9.72;100.00;96917.34;4975490;28;20093;-65
2023/08/08 00:22:33;;;;;;;3.65;2.38;;;;;;;9.73;100.00;96921.66;4979109;28;20042;-64
2023/08/08 00:24:58;;;;;;;5.25;2.50;;;;;;;9.75;100.00;96918.56;4981424;28;20047;-65
2023/08/08 00:27:24;;;;;;;3.22;2.38;;;;;;;9.81;100.00;96919.09;4974335;28;20554;-66
2023/08/08 00:29:50;;;;;;;4.32;2.40;;;;;;;9.84;100.00;96919.16;4980388;28;20043;-67
2023/08/08 00:32:16;;;;;;;2.70;1.98;;;;;;;9.99;100.00;96922.22;4976397;28;20064;-66
2023/08/08 00:34:41;;;;;;;3.90;2.38;;;;;;;10.07;100.00;96919.28;4979526;28;20064;-67
2023/08/08 00:37:06;;;;;;;2.95;1.90;;;;;;;10.20;100.00;96911.75;4975407;28;20068;-66
2023/08/08 00:39:32;;;;;;;8.40;2.40;;;;;;;10.27;100.00;96914.63;4980556;28;20054;-67
2023/08/08 00:41:57;;;;;;;3.47;2.08;;;;;;;10.28;100.00;96923.63;4979247;28;20492;-67
2023/08/08 00:44:23;;;;;;;3.15;2.10;;;;;;;10.26;100.00;96924.00;4977012;28;20904;-67
2023/08/08 00:46:48;;;;;;;2.78;1.95;;;;;;;10.29;100.00;96919.75;4980471;28;20039;-67
2023/08/08 00:49:14;;;;;;;3.20;1.98;;;;;;;10.20;100.00;96917.22;4977047;28;20038;-67
2023/08/08 00:51:40;;;;;;;3.03;2.20;;;;;;;10.05;100.00;96926.28;4982130;28;20124;-66
2023/08/08 00:54:06;;;;;;;6.53;2.40;;;;;;;9.92;100.00;96920.13;4976714;28;20097;-66
2023/08/08 00:56:32;;;;;;;4.70;2.10;;;;;;;9.82;100.00;96916.00;4982649;28;20042;-65
2023/08/08 00:58:57;;;;;;;4.65;2.00;;;;;;;9.73;100.00;96915.41;4984561;28;20050;-66
2023/08/08 01:01:23;;;;;;;4.82;2.13;;;;;;;9.68;100.00;96918.41;4979977;28;20458;-66
2023/08/08 01:03:49;;;;;;;3.25;2.15;;;;;;;9.69;100.00;96922.75;4983613;28;20507;-66
2023/08/08 01:06:49;;;;;;;3.30;2.30;;;;;;;9.73;100.00;96918.13;4980121;28;20069;-66
2023/08/08 01:09:28;;;;;;;5.00;2.60;;;;;;;9.71;100.00;96913.03;4968613;28;20126;-66
2023/08/08 01:11:55;;;;;;;5.30;2.53;;;;;;;9.68;100.00;96910.19;4988279;28;20077;-66
2023/08/08 01:14:24;;;;;;;4.72;2.92;;;;;;;9.64;100.00;96903.88;4978489;28;20088;-65
2023/08/08 01:16:51;;;;;;;12.27;2.75;;;;;;;9.60;100.00;96901.06;4983968;28;20502;-64
2023/08/08 01:19:25;;;;;;;4.78;2.10;;;;;;;9.59;100.00;96901.41;4977944;28;20081;-64
2023/08/08 01:21:53;;;;;;;5.43;2.60;;;;;;;9.54;100.00;96900.53;4981126;28;20046;-65
2023/08/08 01:24:23;;;;;;;3.28;2.55;;;;;;;9.52;100.00;96899.28;4979754;28;20070;-64
2023/08/08 01:26:49;;;;;;;4.32;2.30;;;;;;;9.50;100.00;96894.16;4982684;28;20170;-64
2023/08/08 01:29:15;;;;;;;4.85;2.60;;;;;;;9.54;100.00;96894.25;4974203;28;20051;-65
2023/08/08 01:31:40;;;;;;;4.65;2.20;;;;;;;9.56;100.00;96892.75;4983817;28;20074;-66
2023/08/08 01:34:06;;;;;;;3.55;2.30;;;;;;;9.57;100.00;96896.28;4978647;28;20123;-65
2023/08/08 01:36:45;;;;;;;5.03;2.20;;;;;;;9.55;100.00;96898.59;4983782;28;20046;-65
2023/08/08 01:39:16;;;;;;;4.07;2.10;;;;;;;9.62;100.00;96897.97;4978819;28;20044;-66
2023/08/08 01:41:44;;;;;;;4.13;2.13;;;;;;;9.47;100.00;96897.63;4983352;28;20372;-65
2023/08/08 01:44:10;;;;;;;5.70;2.28;;;;;;;9.37;100.00;96895.41;4987043;28;20039;-65
2023/08/08 01:46:38;;;;;;;3.85;2.25;;;;;;;9.34;100.00;96894.16;4992272;28;20138;-66
2023/08/08 01:49:03;;;;;;;3.38;2.00;;;;;;;9.43;100.00;96898.69;4980116;28;20065;-66
2023/08/08 01:51:29;;;;;;;2.88;1.70;;;;;;;9.40;100.00;96897.47;4983909;28;20073;-65
2023/08/08 01:53:54;;;;;;;3.92;2.05;;;;;;;9.34;100.00;96896.13;4983550;28;20133;-65
2023/08/08 01:56:20;;;;;;;3.78;2.10;;;;;;;9.31;100.00;96902.28;4980669;28;20495;-65
2023/08/08 01:58:45;;;;;;;4.13;2.28;;;;;;;9.26;100.00;96903.38;4984415;28;20042;-65
2023/08/08 02:01:11;;;;;;;3.15;2.20;;;;;;;9.20;100.00;96899.31;4979261;28;20042;-65
2023/08/08 02:03:36;;;;;;;3.67;2.17;;;;;;;9.15;100.00;96900.38;4983101;28;20518;-64
2023/08/08 02:06:01;;;;;;;5.40;2.03;;;;;;;9.10;100.00;96894.38;4981649;28;20046;-65
2023/08/08 02:08:27;;;;;;;3.65;2.08;;;;;;;9.05;100.00;96892.69;4978656;28;20069;-65
2023/08/08 02:10:52;;;;;;;6.18;1.90;;;;;;;9.01;100.00;96891.03;4998240;23;20054;-67
2023/08/08 02:13:18;;;;;;;3.20;2.15;;;;;;;9.00;100.00;96890.22;4981436;28;20127;-67
2023/08/08 02:15:43;;;;;;;5.22;3.25;;;;;;;9.00;100.00;96887.47;4984767;28;20069;-67
2023/08/08 02:18:10;;;;;;;6.93;2.60;;;;;;;9.01;100.00;96889.06;4977642;28;20177;-66
2023/08/08 02:20:36;;;;;;;3.35;1.80;;;;;;;9.12;100.00;96889.34;4999110;28;20046;-67
2023/08/08 02:23:02;;;;;;;4.93;2.17;;;;;;;9.23;100.00;96884.16;5001688;28;20038;-67
2023/08/08 02:25:27;;;;;;;3.67;1.85;;;;;;;9.27;100.00;96893.22;5014661;28;20045;-66
2023/08/08 02:27:53;;;;;;;8.68;2.05;;;;;;;9.32;100.00;96892.94;5003332;28;20383;-68
2023/08/08 02:30:18;;;;;;;5.00;2.05;;;;;;;9.34;100.00;96898.84;4991905;28;20045;-67
2023/08/08 02:32:43;;;;;;;2.80;1.80;;;;;;;9.34;100.00;96887.91;5003067;28;20041;-68
2023/08/08 02:35:09;;;;;;;4.18;1.77;;;;;;;9.36;100.00;96891.09;4998535;28;20556;-67
2023/08/08 02:37:35;;;;;;;2.15;1.60;;;;;;;9.33;100.00;96892.59;5003794;28;20493;-66
2023/08/08 02:40:00;;;;;;;2.75;1.45;;;;;;;9.34;100.00;96887.91;5002965;28;20283;-68
2023/08/08 02:42:26;;;;;;;2.92;1.70;;;;;;;9.28;100.00;96887.41;4996690;28;20055;-66
2023/08/08 02:44:51;;;;;;;5.43;3.13;;;;;;;9.27;100.00;96890.47;5002762;28;20434;-68
2023/08/08 02:47:16;;;;;;;6.18;1.60;;;;;;;9.23;100.00;96887.66;4997875;28;20126;-68
2023/08/08 02:49:42;;;;;;;2.83;2.03;;;;;;;9.06;100.00;96897.00;5003695;28;20074;-68
2023/08/08 02:52:07;;;;;;;2.72;1.73;;;;;;;8.90;100.00;96894.25;4997322;28;20042;-67
2023/08/08 02:54:32;;;;;;;2.65;1.50;;;;;;;8.92;100.00;96894.69;5003350;28;20447;-65
2023/08/08 02:56:58;;;;;;;5.30;1.50;;;;;;;8.93;100.00;96885.38;5003343;28;20394;-67
2023/08/08 02:59:23;;;;;;;3.13;1.70;;;;;;;8.96;100.00;96878.41;5000209;28;20580;-67
2023/08/08 03:01:49;;;;;;;3.30;1.70;;;;;;;8.92;100.00;96883.78;5005481;28;20065;-69
2023/08/08 03:04:15;;;;;;;3.22;1.70;;;;;;;8.91;100.00;96887.66;5000225;28;20463;-69
2023/08/08 03:06:40;;;;;;;2.40;1.67;;;;;;;8.92;100.00;96894.69;5004947;28;20487;-66
2023/08/08 03:09:05;;;;;;;2.83;1.88;;;;;;;8.94;100.00;96888.88;4999257;28;20046;-68
2023/08/08 03:11:31;;;;;;;2.50;1.75;;;;;;;8.88;100.00;96888.34;5019262;28;20391;-67
2023/08/08 03:13:56;;;;;;;3.17;1.90;;;;;;;8.83;100.00;96887.81;5003565;28;20137;-68
2023/08/08 03:16:22;;;;;;;3.60;1.67;;;;;;;8.83;100.00;96885.88;4998045;28;20690;-68
2023/08/08 03:18:47;;;;;;;2.42;1.73;;;;;;;8.70;100.00;96892.56;5003921;28;20073;-67
2023/08/08 03:21:12;;;;;;;3.17;1.85;;;;;;;8.59;100.00;96889.56;5000478;28;20615;-69
2023/08/08 03:23:38;;;;;;;2.80;1.75;;;;;;;8.46;100.00;96888.00;5003329;28;20069;-67
2023/08/08 03:26:03;;;;;;;3.25;1.60;;;;;;;8.33;100.00;96889.97;5001477;28;20040;-70
2023/08/08 03:28:29;;;;;;;1.73;1.40;;;;;;;8.34;100.00;96886.88;5004817;28;20065;-69
2023/08/08 03:30:54;;;;;;;9.55;4.40;;;;;;;8.32;100.00;96889.19;4997782;28;20133;-66
2023/08/08 03:33:19;;;;;;;3.88;1.95;;;;;;;8.21;100.00;96886.16;4998144;28;20034;-68
2023/08/08 03:35:45;;;;;;;3.28;1.70;;;;;;;8.12;100.00;96881.94;5004479;28;20057;-69
2023/08/08 03:38:10;;;;;;;2.58;1.58;;;;;;;8.06;100.00;96886.84;4999514;28;20645;-67
2023/08/08 03:40:36;;;;;;;1.98;1.60;;;;;;;8.11;100.00;96886.63;5003597;28;20042;-68
2023/08/08 03:43:01;;;;;;;3.38;1.55;;;;;;;8.20;100.00;96886.47;4987014;28;20050;-69
2023/08/08 03:45:27;;;;;;;1.50;1.20;;;;;;;8.30;100.00;96886.00;4999367;28;20038;-69
2023/08/08 03:47:52;;;;;;;2.38;1.48;;;;;;;8.37;100.00;96874.47;5002199;28;20115;-69
2023/08/08 03:50:18;;;;;;;3.22;1.92;;;;;;;8.38;100.00;96876.06;4998078;28;20042;-68
2023/08/08 03:52:43;;;;;;;2.80;1.52;;;;;;;8.37;100.00;96885.38;5004136;28;20123;-68
2023/08/08 03:55:09;;;;;;;3.10;1.55;;;;;;;8.35;100.00;96883.00;5000577;28;20046;-69
2023/08/08 03:57:34;;;;;;;2.33;1.45;;;;;;;8.29;100.00;96886.34;5017696;28;20078;-69
2023/08/08 03:59:59;;;;;;;2.83;1.48;;;;;;;8.27;100.00;96878.50;5017776;28;20042;-67
2023/08/08 04:02:25;;;;;;;6.07;2.40;;;;;;;8.24;100.00;96879.97;5008694;28;20057;-66
2023/08/08 04:04:51;;;;;;;4.35;2.20;;;;;;;8.30;100.00;96879.72;5003135;28;20068;-67
2023/08/08 04:07:16;;;;;;;4.13;2.03;;;;;;;8.32;100.00;96889.19;4999448;28;20477;-68
2023/08/08 04:09:42;;;;;;;6.35;1.90;;;;;;;8.35;100.00;96879.50;5001347;28;20085;-67
2023/08/08 04:12:08;;;;;;;2.72;1.80;;;;;;;8.30;100.00;96896.91;4998460;28;20038;-68
2023/08/08 04:14:33;;;;;;;6.40;1.90;;;;;;;8.33;100.00;96898.94;5001958;28;20062;-68
2023/08/08 04:16:59;;;;;;;6.68;1.73;;;;;;;8.33;100.00;96904.41;5002900;28;20037;-69
2023/08/08 04:19:24;;;;;;;3.67;2.20;;;;;;;8.40;100.00;96903.81;4997928;28;20482;-69
2023/08/08 04:21:50;;;;;;;3.97;1.88;;;;;;;8.37;100.00;96902.56;4999782;28;20049;-67
2023/08/08 04:24:15;;;;;;;3.25;2.00;;;;;;;8.42;100.00;96907.00;4992462;28;20034;-67
2023/08/08 04:26:41;;;;;;;2.78;1.70;;;;;;;8.45;100.00;96911.00;5005725;28;20053;-69
2023/08/08 04:29:06;;;;;;;2.08;1.27;;;;;;;8.45;100.00;96917.25;4995433;28;20474;-69
2023/08/08 04:31:33;;;;;;;2.50;1.55;;;;;;;8.45;100.00;96917.25;5000912;28;20042;-68
2023/08/08 04:34:00;;;;;;;2.55;1.60;;;;;;;8.45;100.00;96921.91;5010260;28;20045;-69
2023/08/08 04:36:29;;;;;;;2.20;1.60;;;;;;;8.46;100.00;96921.53;4987408;28;20543;-69
2023/08/08 04:38:55;;;;;;;5.90;1.80;;;;;;;8.55;100.00;96918.66;4992315;28;20515;-69
2023/08/08 04:41:20;;;;;;;2.88;1.98;;;;;;;8.66;100.00;96919.78;4980727;28;20065;-69
2023/08/08 04:43:45;;;;;;;3.10;1.88;;;;;;;8.78;100.00;96913.44;4986283;28;20042;-68
2023/08/08 04:46:12;;;;;;;4.32;1.73;;;;;;;8.86;100.00;96917.16;4980457;28;20049;-68
2023/08/08 04:48:37;;;;;;;8.80;2.00;;;;;;;8.93;100.00;96909.97;4986052;28;20050;-68
2023/08/08 04:51:06;;;;;;;4.45;1.60;;;;;;;8.99;100.00;96916.75;4983580;28;20046;-69
2023/08/08 04:53:32;;;;;;;3.65;1.65;;;;;;;9.01;100.00;96921.06;4986147;28;20069;-68
2023/08/08 04:55:57;;;;;;;3.47;1.73;;;;;;;8.98;100.00;96930.75;4986422;28;20076;-68
2023/08/08 04:58:23;;;;;;;4.28;1.80;;;;;;;8.90;100.00;96921.56;4980793;28;20050;-67
2023/08/08 05:00:50;;;;;;;4.18;1.65;;;;;;;9.05;100.00;96924.69;4987539;28;20134;-67
2023/08/08 05:03:16;;;;;;;4.65;2.03;;;;;;;8.60;100.00;96930.13;4981293;28;20054;-68
2023/08/08 05:05:41;;;;;;;4.82;2.40;;;;;;;8.46;100.00;96928.94;4987605;28;20137;-67
2023/08/08 05:08:06;;;;;;;2.78;1.80;;;;;;;8.67;100.00;96931.50;4982180;28;20038;-68
2023/08/08 05:10:32;;;;;;;4.60;2.03;;;;;;;9.80;100.00;96929.25;4987347;28;20049;-68
2023/08/08 05:12:57;;;;;;;3.88;1.60;;;;;;;11.60;100.00;96919.81;4987462;28;20049;-68
2023/08/08 05:15:23;;;;;;;2.28;1.20;;;;;;;13.20;100.00;96924.22;4981662;28;20530;-69
2023/08/08 05:17:48;;;;;;;1.55;0.93;;;;;;;14.67;100.00;96935.50;4986746;28;20042;-67
2023/08/08 05:20:14;;;;;;;3.28;1.10;;;;;;;15.84;98.16;96938.88;4981713;28;20063;-67
2023/08/08 05:22:39;;;;;;;2.35;1.00;;;;;;;16.74;90.16;96942.22;4987192;28;20053;-68
2023/08/08 05:25:05;;;;;;;1.95;0.90;;;;;;;16.62;79.36;96946.22;4979884;28;20038;-67
2023/08/08 05:27:30;;;;;;;2.72;1.17;;;;;;;15.81;83.58;96947.94;4987857;28;20052;-69
2023/08/08 05:29:55;;;;;;;5.38;1.05;;;;;;;16.12;84.83;96945.56;4995798;28;20184;-67
2023/08/08 05:32:21;;;;;;;2.22;1.10;;;;;;;15.84;88.21;96944.41;4999435;28;20053;-67
2023/08/08 05:34:46;;;;;;;2.25;1.13;;;;;;;15.69;91.87;96949.13;5000578;28;20109;-68
2023/08/08 05:37:12;;;;;;;3.83;1.15;;;;;;;15.73;89.42;96941.63;4980324;28;20089;-68
2023/08/08 05:39:37;;;;;;;3.40;1.08;;;;;;;15.91;90.02;96952.69;4983882;28;20045;-69
2023/08/08 05:42:03;;;;;;;2.70;1.25;;;;;;;17.13;84.76;96949.56;4980534;28;20491;-70
2023/08/08 05:44:28;;;;;;;1.83;1.02;;;;;;;18.25;74.23;96951.53;4982131;28;20093;-68
2023/08/08 05:46:53;;;;;;;3.08;1.40;;;;;;;18.55;70.22;96956.38;4983405;28;20046;-69
2023/08/08 05:49:19;;;;;;;4.30;1.23;;;;;;;19.09;68.19;96950.97;4979064;28;20491;-68
2023/08/08 05:51:44;;;;;;;3.83;1.15;;;;;;;19.58;66.12;96956.22;4983257;28;20046;-69
2023/08/08 05:54:11;;;;;;;3.65;1.30;;;;;;;20.22;62.09;96961.94;4978512;28;20459;-68
2023/08/08 05:56:37;;;;;;;4.32;1.30;;;;;;;20.93;59.01;96968.19;4983761;28;20074;-68
2023/08/08 05:59:03;;;;;;;3.45;1.30;;;;;;;21.75;56.48;96970.41;4980873;28;20523;-69
2023/08/08 06:01:28;;;;;;;4.00;1.25;;;;;;;22.65;52.80;96968.16;4980868;28;20038;-69
2023/08/08 06:03:59;;;;;;;4.70;1.10;;;;;;;23.13;49.96;96962.84;4986160;28;20043;-68
2023/08/08 06:06:25;;;;;;;3.35;1.05;;;;;;;23.29;50.03;96965.56;4979742;28;20513;-67
2023/08/08 06:08:51;;;;;;;2.78;1.08;;;;;;;23.53;48.78;96974.41;4983698;28;20574;-68
2023/08/08 06:11:17;;;;;;;4.25;1.00;;;;;;;22.81;50.80;96970.88;4978007;28;20503;-68
2023/08/08 06:13:42;;;;;;;6.15;1.27;;;;;;;20.66;56.59;96959.22;4982162;28;20109;-67
2023/08/08 06:16:07;;;;;;;3.10;1.20;;;;;;;21.09;58.07;96961.13;4978452;28;20105;-68
2023/08/08 06:18:33;;;;;;;2.53;1.40;;;;;;;21.14;55.48;96958.63;4982785;28;20096;-69
2023/08/08 06:20:59;;;;;;;3.85;1.30;;;;;;;22.21;51.67;96957.31;4984135;28;20057;-69
2023/08/08 06:23:24;;;;;;;7.47;1.65;;;;;;;23.74;49.84;96958.97;4977199;28;20042;-69
2023/08/08 06:25:50;;;;;;;2.30;0.98;;;;;;;24.44;48.36;96967.50;4981698;28;20045;-68
2023/08/08 06:28:15;;;;;;;4.95;1.50;;;;;;;23.56;48.99;96956.75;4978402;28;20038;-68
2023/08/08 06:30:41;;;;;;;2.08;1.00;;;;;;;23.71;48.21;96967.47;4994601;28;20045;-68
2023/08/08 06:33:06;;;;;;;2.58;1.15;;;;;;;23.95;47.52;96965.94;4993834;28;20034;-69
2023/08/08 06:35:31;;;;;;;1.63;1.00;;;;;;;23.66;49.22;96954.88;5001781;28;20340;-68
2023/08/08 06:37:57;;;;;;;1.45;0.98;;;;;;;23.76;49.29;96944.56;5002146;28;20042;-68
2023/08/08 06:40:23;;;;;;;1.52;0.98;;;;;;;24.54;46.99;96954.38;4997939;28;20041;-68
2023/08/08 06:42:49;;;;;;;1.48;0.77;;;;;;;25.89;43.40;96961.72;5002712;28;20120;-68
2023/08/08 06:45:15;;;;;;;1.67;0.80;;;;;;;25.67;43.10;96966.63;4996860;28;20515;-67
2023/08/08 06:47:40;;;;;;;2.17;0.95;;;;;;;25.49;42.38;96965.28;5001988;28;20038;-67
2023/08/08 06:50:06;;;;;;;2.83;0.90;;;;;;;25.34;43.06;96961.50;4996972;28;20034;-67
2023/08/08 06:52:32;;;;;;;2.67;1.05;;;;;;;26.49;41.65;96956.88;5005657;28;20065;-68
2023/08/08 06:54:57;;;;;;;4.47;1.00;;;;;;;25.73;41.82;96964.78;4993819;28;20203;-69
2023/08/08 06:57:22;;;;;;;2.47;1.00;;;;;;;26.54;41.02;96961.84;4998491;28;20071;-68
2023/08/08 06:59:50;;;;;;;3.22;0.80;;;;;;;27.40;39.08;96960.84;5007799;28;20042;-69
2023/08/08 07:02:17;;;;;;;4.28;0.88;;;;;;;27.63;38.56;96967.81;4997781;28;20034;-68
2023/08/08 07:04:42;;;;;;;2.88;1.25;;;;;;;27.16;39.58;96957.94;5002014;28;20107;-68
2023/08/08 07:07:08;;;;;;;2.90;1.00;;;;;;;27.26;38.85;96961.47;4993298;28;20491;-68
2023/08/08 07:09:33;;;;;;;1.90;0.90;;;;;;;25.49;40.58;96959.69;5002955;28;20046;-69
2023/08/08 07:11:58;;;;;;;1.75;0.93;;;;;;;25.50;41.26;96957.69;5003933;28;20501;-68
2023/08/08 07:14:24;;;;;;;2.65;1.00;;;;;;;25.16;42.80;96951.72;4999084;28;20058;-69
2023/08/08 07:16:49;;;;;;;3.58;1.17;;;;;;;25.43;41.44;96950.31;5004188;28;20133;-70
2023/08/08 07:19:15;;;;;;;1.88;1.00;;;;;;;26.24;40.74;96947.47;5013574;28;20077;-69
2023/08/08 07:21:41;;;;;;;5.75;1.25;;;;;;;26.75;38.52;96936.91;5007176;28;20064;-69
2023/08/08 07:24:07;;;;;;;2.33;1.10;;;;;;;24.64;42.27;96939.22;5001155;28;20539;-68
2023/08/08 07:26:32;;;;;;;1.58;0.90;;;;;;;24.34;41.33;96940.66;5001408;28;20491;-68
2023/08/08 07:28:58;;;;;;;2.45;0.90;;;;;;;24.12;42.13;96935.78;5002864;28;20045;-68
2023/08/08 07:31:23;;;;;;;3.75;0.88;;;;;;;25.01;41.24;96936.66;4998597;28;20773;-68
2023/08/08 07:33:49;;;;;;;2.35;1.02;;;;;;;25.96;40.66;96935.41;5001320;28;20080;-68
2023/08/08 07:36:14;;;;;;;2.63;1.10;;;;;;;26.44;38.37;96944.22;4994856;28;20419;-69
2023/08/08 07:38:40;;;;;;;2.63;1.00;;;;;;;25.53;39.82;96934.31;5003020;28;20040;-68
2023/08/08 07:41:05;;;;;;;3.15;0.90;;;;;;;26.04;38.76;96936.69;4996948;28;20037;-68
2023/08/08 07:43:31;;;;;;;2.03;1.10;;;;;;;26.05;39.40;96932.63;5001221;28;20038;-69
2023/08/08 07:45:56;;;;;;;2.58;0.75;;;;;;;25.76;40.48;96936.56;4984667;28;20049;-68
2023/08/08 07:48:21;;;;;;;2.88;1.00;;;;;;;24.98;42.72;96924.38;4998095;28;20244;-68
2023/08/08 07:50:47;;;;;;;3.72;1.00;;;;;;;25.58;41.07;96921.72;5003013;28;20517;-68
2023/08/08 07:53:12;;;;;;;2.03;1.10;;;;;;;24.31;43.44;96916.34;4997172;28;20100;-68
2023/08/08 07:55:38;;;;;;;11.93;8.65;;;;;;;24.14;44.72;96910.94;5002254;28;20049;-68
2023/08/08 07:58:03;;;;;;;16.38;9.45;;;;;;;25.31;42.63;96920.34;4999080;28;20133;-68
2023/08/08 08:00:29;;;;;;;2.08;1.13;;;;;;;26.28;40.77;96919.25;5001311;28;20037;-68
2023/08/08 08:02:54;;;;;;;2.97;1.38;;;;;;;26.97;37.91;96922.66;5002521;28;20458;-68
2023/08/08 08:05:20;;;;;;;4.72;1.80;;;;;;;26.27;38.76;96929.72;4998718;28;20068;-68
2023/08/08 08:07:45;;;;;;;3.05;1.20;;;;;;;25.81;39.94;96923.19;5005833;28;20503;-68
2023/08/08 08:10:13;;;;;;;2.50;1.00;;;;;;;25.75;39.54;96917.44;5000811;28;20096;-66
2023/08/08 08:12:40;;;;;;;2.45;1.00;;;;;;;26.51;39.32;96915.06;5004922;28;20045;-66
2023/08/08 08:15:06;;;;;;;1.95;1.05;;;;;;;26.62;39.34;96911.81;5000043;28;20410;-67
2023/08/08 08:17:32;;;;;;;2.38;1.17;;;;;;;25.34;40.33;96908.22;5005158;28;20038;-68
2023/08/08 08:19:57;;;;;;;2.00;1.10;;;;;;;25.89;40.89;96902.00;5003789;28;20045;-68
2023/08/08 08:22:23;;;;;;;1.98;1.10;;;;;;;26.12;39.79;96903.47;5000482;28;20139;-68
2023/08/08 08:24:48;;;;;;;3.70;1.20;;;;;;;25.68;41.20;96910.06;5004555;28;20140;-68
2023/08/08 08:27:14;;;;;;;2.05;1.02;;;;;;;26.47;38.62;96909.59;4998438;28;20033;-68
2023/08/08 08:29:39;;;;;;;2.28;1.05;;;;;;;24.77;41.86;96903.53;5004134;28;20041;-68
2023/08/08 08:32:05;;;;;;;7.38;1.20;;;;;;;25.04;40.01;96906.97;4999751;28;20046;-68
2023/08/08 08:34:30;;;;;;;4.25;1.10;;;;;;;24.90;40.16;96914.69;5005154;28;20594;-68
2023/08/08 08:36:56;;;;;;;2.38;0.85;;;;;;;26.26;37.60;96907.72;5002849;28;20038;-68
2023/08/08 08:39:21;;;;;;;2.38;0.93;;;;;;;25.76;37.46;96899.34;4999338;28;20096;-68
2023/08/08 08:41:49;;;;;;;2.22;1.05;;;;;;;26.04;37.71;96903.00;5004819;28;20462;-68
2023/08/08 08:44:16;;;;;;;1.92;0.85;;;;;;;24.26;40.34;96892.56;5000550;28;20041;-68
2023/08/08 08:46:44;;;;;;;2.92;1.38;;;;;;;24.64;39.65;96890.84;5002249;28;20042;-68
2023/08/08 08:49:10;;;;;;;1.92;1.00;;;;;;;23.79;40.97;96887.72;5013774;28;20141;-67
2023/08/08 08:51:36;;;;;;;3.83;1.23;;;;;;;23.73;41.26;96886.72;5003476;28;20042;-68
2023/08/08 08:54:03;;;;;;;1.92;1.00;;;;;;;23.90;41.65;96882.59;5000526;28;20041;-67
2023/08/08 08:56:28;;;;;;;2.78;0.85;;;;;;;24.91;40.62;96890.25;5002261;28;20062;-68
2023/08/08 08:58:54;;;;;;;2.53;1.10;;;;;;;24.76;40.24;96899.19;5002038;28;20123;-67
2023/08/08 09:01:23;;;;;;;3.47;1.00;;;;;;;25.98;38.18;96904.09;4998732;28;20077;-68
2023/08/08 09:03:49;;;;;;;2.50;0.93;;;;;;;25.75;38.89;96901.38;5003606;28;20037;-68
2023/08/08 09:06:16;;;;;;;2.85;1.05;;;;;;;25.55;38.47;96896.16;4998902;28;20189;-67
2023/08/08 09:08:41;;;;;;;2.22;1.15;;;;;;;24.82;39.52;96887.38;5003453;28;20056;-66
2023/08/08 09:11:07;;;;;;;2.13;0.90;;;;;;;24.32;39.42;96879.53;4998884;28;20394;-69
2023/08/08 09:13:41;;;;;;;2.25;1.20;;;;;;;24.22;40.22;96889.09;5003388;28;20471;-69
2023/08/08 09:16:08;;;;;;;1.77;0.90;;;;;;;24.55;39.28;96902.75;4996753;28;20042;-67
2023/08/08 09:18:34;;;;;;;2.58;1.20;;;;;;;25.34;38.43;96897.78;5013017;28;20480;-68
2023/08/08 09:21:00;;;;;;;3.65;1.17;;;;;;;25.25;39.09;96894.19;5008595;28;20034;-68
2023/08/08 09:23:25;;;;;;;3.15;1.30;;;;;;;24.50;39.81;96892.09;5001145;28;20041;-67
2023/08/08 09:25:51;;;;;;;3.83;1.58;;;;;;;23.91;41.29;96886.16;5004826;28;20106;-68
2023/08/08 09:28:17;;;;;;;2.25;1.10;;;;;;;24.88;40.48;96883.50;4999600;28;20041;-68
2023/08/08 09:30:43;;;;;;;3.10;1.00;;;;;;;24.93;39.07;96887.75;5003540;28;20042;-68
2023/08/08 09:33:08;;;;;;;3.75;1.05;;;;;;;24.13;39.81;96875.81;4998352;28;20074;-68
2023/08/08 09:35:34;;;;;;;1.98;0.90;;;;;;;25.31;38.56;96889.53;5000818;28;20084;-68
2023/08/08 09:37:59;;;;;;;2.78;1.00;;;;;;;25.79;36.97;96883.63;5003211;28;20046;-68
2023/08/08 09:40:25;;;;;;;1.67;1.00;;;;;;;27.41;34.50;96877.28;4996773;28;20437;-68
2023/08/08 09:42:53;;;;;;;2.95;1.02;;;;;;;28.01;34.58;96867.88;5002270;28;20042;-68
2023/08/08 09:45:18;;;;;;;2.13;0.98;;;;;;;28.14;33.88;96878.88;4998695;28;20104;-68
2023/08/08 09:47:44;;;;;;;3.78;1.00;;;;;;;28.11;34.09;96879.06;5003946;28;20038;-67
2023/08/08 09:50:13;;;;;;;1.63;0.88;;;;;;;27.20;34.82;96881.84;4995079;28;20633;-67
2023/08/08 09:52:41;;;;;;;1.35;0.73;;;;;;;25.81;37.14;96869.91;5016583;28;20110;-68
2023/08/08 09:55:07;;;;;;;3.15;1.10;;;;;;;25.53;37.29;96875.41;5001503;28;20044;-65
2023/08/08 09:57:33;;;;;;;2.17;0.80;;;;;;;25.29;37.38;96861.94;5009033;28;20048;-68
2023/08/08 10:00:05;;;;;;;3.92;1.10;;;;;;;25.94;37.29;96859.34;5004216;28;20038;-69
2023/08/08 10:02:32;;;;;;;2.28;0.90;;;;;;;25.84;37.30;96855.72;4999354;28;20041;-67
2023/08/08 10:04:58;;;;;;;2.50;0.90;;;;;;;26.68;36.19;96856.53;5003013;28;20052;-67
2023/08/08 10:07:23;;;;;;;2.05;0.90;;;;;;;26.84;36.39;96853.38;4996918;28;20645;-67
2023/08/08 10:09:49;;;;;;;2.25;0.88;;;;;;;26.11;38.13;96866.22;4995539;28;20046;-68
2023/08/08 10:12:15;;;;;;;2.28;1.00;;;;;;;26.93;35.97;96855.38;4996701;28;20124;-68
2023/08/08 10:14:42;;;;;;;1.83;0.95;;;;;;;25.54;37.39;96854.56;4998428;28;20105;-68
2023/08/08 10:17:12;;;;;;;2.47;1.08;;;;;;;25.73;36.89;96861.78;4998655;28;20738;-68
2023/08/08 10:19:38;;;;;;;2.08;0.90;;;;;;;26.37;35.69;96865.91;5002911;28;20046;-67
2023/08/08 10:22:05;;;;;;;2.75;1.27;;;;;;;25.09;38.20;96859.50;5002762;28;20621;-68
2023/08/08 10:24:35;;;;;;;2.78;0.95;;;;;;;25.76;37.08;96857.25;4993722;28;20132;-69
2023/08/08 10:27:05;;;;;;;1.63;0.90;;;;;;;25.75;37.20;96861.31;4997602;28;20069;-69
2023/08/08 10:29:37;;;;;;;2.80;1.00;;;;;;;25.42;37.46;96859.03;5009281;28;20528;-66
2023/08/08 10:32:05;;;;;;;1.90;1.05;;;;;;;26.17;35.98;96857.19;5012780;28;20111;-68
2023/08/08 10:34:43;;;;;;;3.25;1.02;;;;;;;26.09;35.60;96853.88;5003430;28;20499;-67
2023/08/08 10:37:12;;;;;;;4.13;0.93;;;;;;;25.73;36.29;96844.16;4999575;28;20042;-67
2023/08/08 10:39:38;;;;;;;5.40;0.95;;;;;;;25.55;36.84;96842.09;5001479;28;20042;-67
2023/08/08 10:42:04;;;;;;;2.65;0.80;;;;;;;25.23;37.10;96838.56;5000458;28;20103;-66
2023/08/08 10:44:41;;;;;;;3.92;0.93;;;;;;;24.99;39.03;96836.28;5004622;28;20045;-67
2023/08/08 10:47:06;;;;;;;3.13;0.90;;;;;;;24.40;39.32;96838.84;4998816;28;20177;-66
2023/08/08 10:49:32;;;;;;;2.63;0.80;;;;;;;24.75;39.18;96844.38;5003990;28;20169;-69
2023/08/08 10:52:03;;;;;;;2.65;1.10;;;;;;;25.13;38.44;96842.56;5003939;28;20132;-68
2023/08/08 10:54:30;;;;;;;8.20;1.13;;;;;;;25.13;38.00;96842.56;4996287;28;20129;-68
2023/08/08 10:56:59;;;;;;;2.97;1.00;;;;;;;25.53;38.90;96831.34;5009704;28;20129;-68
2023/08/08 10:59:27;;;;;;;4.47;0.90;;;;;;;25.25;38.35;96832.53;4994113;28;20463;-68
2023/08/08 11:01:56;;;;;;;2.65;0.98;;;;;;;25.31;38.20;96833.47;5003685;28;20042;-67
2023/08/08 11:04:26;;;;;;;2.47;1.20;;;;;;;24.71;39.61;96832.53;4994029;28;20029;-67
2023/08/08 11:06:58;;;;;;;3.38;1.10;;;;;;;24.04;40.82;96814.97;5001451;28;20458;-67
2023/08/08 11:09:26;;;;;;;1.98;0.82;;;;;;;23.77;41.61;96823.06;4989659;28;20497;-67
2023/08/08 11:11:51;;;;;;;2.63;1.08;;;;;;;23.75;41.16;96817.94;5001576;28;20056;-67
2023/08/08 11:14:22;;;;;;;3.08;0.90;;;;;;;23.70;39.61;96823.31;5004061;28;20038;-67
2023/08/08 11:16:52;;;;;;;2.15;1.02;;;;;;;23.40;41.62;96809.50;5000675;28;20068;-68
2023/08/08 11:19:19;;;;;;;3.08;1.25;;;;;;;23.24;42.12;96801.25;4999898;28;20132;-68
2023/08/08 11:21:46;;;;;;;2.55;1.10;;;;;;;22.94;42.48;96803.38;5002659;28;20491;-67
2023/08/08 11:24:12;;;;;;;2.83;1.10;;;;;;;23.13;41.26;96807.19;4997293;28;20582;-68
2023/08/08 11:26:41;;;;;;;2.72;1.17;;;;;;;23.10;41.91;96805.28;5000332;28;20104;-68
2023/08/08 11:29:07;;;;;;;5.25;1.25;;;;;;;22.66;41.20;96807.81;5013952;28;20474;-69